Time;durP1;ratioP1;P1;durP2;ratioP2;P2;SDS_P1;SDS_P2;PMS_P1;PMS_P2;Temp;Humidity;BMP_temperature;BMP_pressure;BME280_temperature;BME280_humidity;BME280_pressure;Samples;Min_cycle;Max_cycle;Signal;HPM_P1;HPM_P2
2023/03/23 00:00:54;;;;;;;16.60;11.10;;;;;;;;;;106217;1251;60531;-49
2023/03/23 00:03:21;;;;;;;12.30;10.60;;;;;;;;;;105702;1250;60765;-48
2023/03/23 00:05:50;;;;;;;18.80;11.40;;;;;;;;;;105625;1250;60554;-48
2023/03/23 00:08:23;;;;;;;14.60;10.20;;;;;;;;;;106107;1254;60825;-48
2023/03/23 00:10:52;;;;;;;17.00;11.40;;;;;;;;;;105688;1254;62126;-47
2023/03/23 00:13:19;;;;;;;16.30;10.90;;;;;;;;;;107141;1253;60382;-48
2023/03/23 00:15:49;;;;;;;17.70;11.60;;;;;;;;;;105786;1254;60369;-46
2023/03/23 00:18:21;;;;;;;17.80;10.20;;;;;;;;;;105784;1250;60538;-47
2023/03/23 00:20:51;;;;;;;13.90;10.70;;;;;;;;;;105980;1250;60422;-46
2023/03/23 00:23:18;;;;;;;12.50;10.10;;;;;;;;;;105776;1254;62189;-46
2023/03/23 00:25:48;;;;;;;15.60;10.90;;;;;;;;;;105633;1254;60284;-47
2023/03/23 00:28:15;;;;;;;17.70;12.80;;;;;;;;;;105847;1254;60573;-48
2023/03/23 00:30:42;;;;;;;14.80;11.00;;;;;;;;;;105678;1256;60433;-48
2023/03/23 00:33:12;;;;;;;17.50;13.00;;;;;;;;;;107279;1250;60335;-49
2023/03/23 00:35:40;;;;;;;17.50;13.60;;;;;;;;;;107087;1251;61923;-46
2023/03/23 00:38:08;;;;;;;19.10;13.80;;;;;;;;;;108398;1251;60422;-48
2023/03/23 00:40:35;;;;;;;20.00;14.60;;;;;;;;;;105916;1253;60977;-46
2023/03/23 00:43:03;;;;;;;21.20;14.50;;;;;;;;;;106435;1257;60459;-48
2023/03/23 00:45:29;;;;;;;20.70;15.20;;;;;;;;;;105726;1250;61857;-48
2023/03/23 00:47:56;;;;;;;17.90;14.10;;;;;;;;;;105581;1250;61327;-48
2023/03/23 00:50:24;;;;;;;22.60;16.70;;;;;;;;;;105960;1253;60428;-49
2023/03/23 00:52:58;;;;;;;23.20;16.70;;;;;;;;;;105930;1251;60491;-47
2023/03/23 00:55:25;;;;;;;20.40;15.80;;;;;;;;;;105601;1254;60397;-49
2023/03/23 00:57:51;;;;;;;24.00;16.10;;;;;;;;;;105755;1251;60384;-47
2023/03/23 01:00:19;;;;;;;21.40;17.10;;;;;;;;;;105648;1250;62349;-48
2023/03/23 01:02:46;;;;;;;22.60;16.80;;;;;;;;;;105639;1253;60464;-49
2023/03/23 01:05:12;;;;;;;21.00;16.20;;;;;;;;;;105520;1256;60540;-49
2023/03/23 01:07:38;;;;;;;23.20;17.10;;;;;;;;;;105616;1251;60531;-49
2023/03/23 01:10:04;;;;;;;25.10;17.80;;;;;;;;;;105648;1255;60417;-49
2023/03/23 01:12:30;;;;;;;24.30;17.10;;;;;;;;;;105602;1256;60483;-47
2023/03/23 01:14:57;;;;;;;24.10;17.10;;;;;;;;;;105717;1251;60493;-47
2023/03/23 01:17:23;;;;;;;24.40;18.20;;;;;;;;;;105485;1250;60600;-50
2023/03/23 01:19:49;;;;;;;22.90;16.70;;;;;;;;;;105609;1251;60552;-48
2023/03/23 01:22:16;;;;;;;27.10;18.00;;;;;;;;;;105780;1251;60999;-49
2023/03/23 01:24:43;;;;;;;25.40;17.50;;;;;;;;;;105605;1250;60419;-48
2023/03/23 01:27:10;;;;;;;24.00;18.00;;;;;;;;;;105700;1254;60315;-48
2023/03/23 01:29:36;;;;;;;24.20;18.50;;;;;;;;;;105388;1250;60625;-46
2023/03/23 01:32:02;;;;;;;23.00;17.70;;;;;;;;;;105668;1250;60603;-47
2023/03/23 01:34:29;;;;;;;24.30;17.70;;;;;;;;;;105732;1253;60766;-46
2023/03/23 01:36:55;;;;;;;22.10;15.90;;;;;;;;;;105685;1251;60429;-49
2023/03/23 01:39:21;;;;;;;26.50;17.10;;;;;;;;;;105641;1251;60563;-49
2023/03/23 01:41:47;;;;;;;27.00;18.50;;;;;;;;;;105625;1250;63974;-48
2023/03/23 01:44:19;;;;;;;24.90;17.60;;;;;;;;;;109304;1250;58768;-48
2023/03/23 01:46:59;;;;;;;21.70;16.80;;;;;;;;;;109317;1250;58253;-48
2023/03/23 01:49:28;;;;;;;20.60;16.60;;;;;;;;;;109271;1251;62049;-47
2023/03/23 01:51:56;;;;;;;21.50;15.70;;;;;;;;;;109319;1250;58389;-48
2023/03/23 01:54:23;;;;;;;22.80;18.10;;;;;;;;;;109187;1251;60950;-48
2023/03/23 01:56:56;;;;;;;19.00;14.80;;;;;;;;;;109285;1255;58265;-48
2023/03/23 01:59:22;;;;;;;20.10;15.80;;;;;;;;;;109259;1250;60334;-47
2023/03/23 02:01:57;;;;;;;19.30;15.50;;;;;;;;;;109299;1250;61013;-48
2023/03/23 02:04:24;;;;;;;24.60;16.70;;;;;;;;;;109286;1250;58474;-48
2023/03/23 02:06:57;;;;;;;21.20;16.40;;;;;;;;;;109230;1250;60806;-48
2023/03/23 02:09:26;;;;;;;20.70;17.10;;;;;;;;;;109174;1256;58451;-48
2023/03/23 02:11:52;;;;;;;22.50;17.50;;;;;;;;;;109371;1250;58218;-48
2023/03/23 02:14:25;;;;;;;24.70;19.40;;;;;;;;;;107835;1250;60962;-48
2023/03/23 02:16:51;;;;;;;25.80;18.60;;;;;;;;;;108059;1253;58274;-49
2023/03/23 02:19:36;;;;;;;22.80;18.00;;;;;;;;;;105552;1250;60421;-49
2023/03/23 02:22:23;;;;;;;27.60;17.90;;;;;;;;;;105500;1257;60361;-48
2023/03/23 02:24:49;;;;;;;;;;;;;;;;;;105504;1250;60424;-49
2023/03/23 02:27:21;;;;;;;22.30;17.70;;;;;;;;;;109404;1250;60974;-49
2023/03/23 02:29:47;;;;;;;24.40;16.20;;;;;;;;;;107991;1257;60513;-49
2023/03/23 02:32:22;;;;;;;21.10;17.00;;;;;;;;;;105418;1257;60539;-48
2023/03/23 02:34:49;;;;;;;23.00;16.60;;;;;;;;;;105604;1254;60286;-48
2023/03/23 02:37:24;;;;;;;20.00;15.70;;;;;;;;;;105734;1254;60350;-50
2023/03/23 02:40:20;;;;;;;22.80;15.30;;;;;;;;;;107984;1250;62595;-49
2023/03/23 02:42:48;;;;;;;26.50;16.90;;;;;;;;;;105604;1250;61738;-46
2023/03/23 02:45:14;;;;;;;19.80;16.30;;;;;;;;;;106908;1250;60672;-49
2023/03/23 02:47:41;;;;;;;18.60;15.60;;;;;;;;;;105522;1259;60477;-47
2023/03/23 02:50:07;;;;;;;20.50;15.20;;;;;;;;;;106490;1254;60424;-49
2023/03/23 02:52:34;;;;;;;19.90;15.90;;;;;;;;;;105851;1250;60514;-47
2023/03/23 02:55:01;;;;;;;20.40;16.20;;;;;;;;;;105679;1256;60407;-48
2023/03/23 02:57:28;;;;;;;19.20;15.20;;;;;;;;;;105849;1250;60547;-48
2023/03/23 02:59:56;;;;;;;21.70;15.90;;;;;;;;;;105496;1257;60533;-46
2023/03/23 03:02:29;;;;;;;23.20;15.40;;;;;;;;;;105617;1256;60413;-47
2023/03/23 03:05:16;;;;;;;19.20;14.20;;;;;;;;;;105561;1256;62211;-48
2023/03/23 03:07:54;;;;;;;19.30;15.60;;;;;;;;;;105988;1250;60459;-50
2023/03/23 03:10:39;;;;;;;19.50;15.30;;;;;;;;;;105707;1253;60993;-48
2023/03/23 03:13:23;;;;;;;20.30;14.40;;;;;;;;;;107475;1250;60426;-48
2023/03/23 03:15:52;;;;;;;19.30;15.80;;;;;;;;;;105749;1256;60581;-48
2023/03/23 03:18:24;;;;;;;21.90;15.40;;;;;;;;;;108318;1250;62313;-46
2023/03/23 03:20:54;;;;;;;21.50;16.10;;;;;;;;;;106167;1250;60624;-46
2023/03/23 03:23:22;;;;;;;21.00;16.10;;;;;;;;;;106696;1251;60541;-48
2023/03/23 03:25:51;;;;;;;21.30;16.30;;;;;;;;;;105528;1258;60301;-48
2023/03/23 03:28:22;;;;;;;21.80;14.60;;;;;;;;;;106059;1253;61301;-49
2023/03/23 03:30:54;;;;;;;19.00;15.80;;;;;;;;;;105712;1251;61299;-50
2023/03/23 03:33:25;;;;;;;20.60;16.50;;;;;;;;;;106396;1253;60553;-48
2023/03/23 03:35:55;;;;;;;19.60;15.40;;;;;;;;;;105919;1253;60551;-47
2023/03/23 03:38:24;;;;;;;19.80;15.80;;;;;;;;;;105748;1259;60448;-48
2023/03/23 03:40:51;;;;;;;24.30;18.30;;;;;;;;;;105650;1256;60581;-47
2023/03/23 03:43:17;;;;;;;19.60;16.00;;;;;;;;;;105617;1256;60449;-50
2023/03/23 03:45:44;;;;;;;17.50;14.80;;;;;;;;;;105716;1251;60550;-51
2023/03/23 03:48:11;;;;;;;18.30;15.40;;;;;;;;;;105851;1250;60589;-47
2023/03/23 03:50:37;;;;;;;19.60;14.90;;;;;;;;;;105731;1250;60539;-48
2023/03/23 03:53:05;;;;;;;20.20;16.40;;;;;;;;;;105842;1256;58982;-47
2023/03/23 03:55:35;;;;;;;18.00;14.30;;;;;;;;;;105802;1255;61763;-48
2023/03/23 03:58:04;;;;;;;21.00;14.50;;;;;;;;;;105848;1250;60463;-46
2023/03/23 04:00:48;;;;;;;19.30;14.70;;;;;;;;;;105957;1253;60392;-46
2023/03/23 04:03:18;;;;;;;19.00;13.70;;;;;;;;;;105837;1254;60403;-48
2023/03/23 04:06:20;;;;;;;15.10;13.10;;;;;;;;;;105929;1251;60582;-49
2023/03/23 04:08:46;;;;;;;18.60;15.20;;;;;;;;;;105557;1259;60547;-49
2023/03/23 04:11:13;;;;;;;14.90;13.30;;;;;;;;;;105539;1250;60536;-49
2023/03/23 04:13:40;;;;;;;19.40;15.00;;;;;;;;;;105849;1257;60840;-49
2023/03/23 04:16:21;;;;;;;17.80;15.10;;;;;;;;;;105717;1250;60404;-46
2023/03/23 04:18:48;;;;;;;18.60;14.00;;;;;;;;;;105964;1250;60448;-48
2023/03/23 04:21:15;;;;;;;16.70;13.70;;;;;;;;;;105569;1250;61802;-49
2023/03/23 04:23:43;;;;;;;14.90;13.00;;;;;;;;;;105864;1256;60398;-49
2023/03/23 04:26:12;;;;;;;16.70;13.90;;;;;;;;;;105673;1255;60537;-49
2023/03/23 04:28:43;;;;;;;19.50;14.50;;;;;;;;;;105619;1255;60426;-48
2023/03/23 04:31:29;;;;;;;18.20;14.80;;;;;;;;;;105545;1258;60429;-49
2023/03/23 04:34:06;;;;;;;15.40;13.80;;;;;;;;;;105625;1258;61931;-48
2023/03/23 04:36:37;;;;;;;17.00;13.80;;;;;;;;;;105682;1254;60469;-46
2023/03/23 04:39:10;;;;;;;21.80;15.10;;;;;;;;;;105626;1258;60661;-47
2023/03/23 04:41:41;;;;;;;19.00;15.30;;;;;;;;;;105759;1253;60496;-48
2023/03/23 04:44:38;;;;;;;18.80;16.10;;;;;;;;;;105321;1250;60477;-49
2023/03/23 04:47:09;;;;;;;19.30;14.60;;;;;;;;;;105697;1255;62143;-49
2023/03/23 04:49:42;;;;;;;17.50;14.60;;;;;;;;;;106160;1255;60358;-48
2023/03/23 04:52:13;;;;;;;19.00;14.50;;;;;;;;;;108159;1253;60734;-46
2023/03/23 04:54:47;;;;;;;17.90;14.30;;;;;;;;;;105569;1257;60524;-47
2023/03/23 04:57:15;;;;;;;18.00;14.90;;;;;;;;;;109372;1250;58272;-49
2023/03/23 04:59:48;;;;;;;20.60;15.90;;;;;;;;;;109266;1253;61250;-50
2023/03/23 05:02:23;;;;;;;16.50;14.60;;;;;;;;;;105931;1256;60764;-50
2023/03/23 05:04:50;;;;;;;19.40;16.20;;;;;;;;;;105640;1255;60526;-50
2023/03/23 05:07:23;;;;;;;16.90;13.20;;;;;;;;;;105459;1252;60507;-49
2023/03/23 05:09:52;;;;;;;15.60;14.00;;;;;;;;;;109326;1255;58228;-49
2023/03/23 05:12:21;;;;;;;15.00;13.40;;;;;;;;;;109244;1250;60928;-48
2023/03/23 05:14:58;;;;;;;19.70;14.20;;;;;;;;;;109250;1250;58190;-49
2023/03/23 05:17:26;;;;;;;16.20;13.50;;;;;;;;;;109191;1257;59856;-48
2023/03/23 05:19:56;;;;;;;14.20;12.70;;;;;;;;;;109251;1251;58238;-47
2023/03/23 05:22:51;;;;;;;17.20;15.20;;;;;;;;;;109136;1250;58189;-48
2023/03/23 05:25:22;;;;;;;21.30;14.70;;;;;;;;;;109310;1251;63441;-48
2023/03/23 05:27:54;;;;;;;14.00;12.50;;;;;;;;;;109252;1254;58568;-50
2023/03/23 05:30:26;;;;;;;16.60;13.50;;;;;;;;;;109197;1253;60819;-49
2023/03/23 05:32:54;;;;;;;15.20;13.40;;;;;;;;;;109316;1251;58492;-49
2023/03/23 05:35:40;;;;;;;14.70;12.20;;;;;;;;;;109285;1250;58555;-48
2023/03/23 05:38:06;;;;;;;15.80;14.20;;;;;;;;;;109321;1254;60898;-49
2023/03/23 05:40:34;;;;;;;16.10;14.40;;;;;;;;;;109204;1250;59005;-49
2023/03/23 05:43:11;;;;;;;16.80;14.90;;;;;;;;;;107304;1250;60455;-47
2023/03/23 05:46:02;;;;;;;18.40;14.90;;;;;;;;;;108497;1251;60400;-48
2023/03/23 05:48:29;;;;;;;20.20;15.10;;;;;;;;;;105680;1251;60456;-49
2023/03/23 05:50:56;;;;;;;14.90;13.20;;;;;;;;;;105551;1250;60603;-50
2023/03/23 05:53:23;;;;;;;17.20;14.00;;;;;;;;;;108683;1253;58918;-51
2023/03/23 05:55:51;;;;;;;17.20;15.10;;;;;;;;;;106013;1254;60522;-49
2023/03/23 05:58:27;;;;;;;18.50;13.30;;;;;;;;;;105938;1255;60309;-47
2023/03/23 06:00:53;;;;;;;17.20;14.20;;;;;;;;;;105452;1250;60984;-50
2023/03/23 06:03:23;;;;;;;15.90;14.20;;;;;;;;;;105761;1253;61922;-48
2023/03/23 06:06:04;;;;;;;15.80;13.10;;;;;;;;;;105508;1250;60617;-50
2023/03/23 06:08:39;;;;;;;15.30;13.30;;;;;;;;;;105491;1250;60559;-49
2023/03/23 06:11:14;;;;;;;16.10;14.40;;;;;;;;;;107322;1250;60425;-49
2023/03/23 06:13:44;;;;;;;17.50;15.60;;;;;;;;;;106140;1250;60578;-49
2023/03/23 06:16:11;;;;;;;14.40;12.90;;;;;;;;;;105702;1253;60418;-49
2023/03/23 06:19:08;;;;;;;15.30;13.70;;;;;;;;;;106036;1250;60461;-49
2023/03/23 06:21:41;;;;;;;17.50;14.00;;;;;;;;;;105194;1257;60740;-49
2023/03/23 06:24:29;;;;;;;14.40;13.00;;;;;;;;;;105092;1254;60425;-49
2023/03/23 06:26:57;;;;;;;23.30;13.00;;;;;;;;;;105125;1250;60531;-49
2023/03/23 06:29:23;;;;;;;17.70;13.30;;;;;;;;;;105718;1250;60669;-48
2023/03/23 06:32:00;;;;;;;18.10;12.80;;;;;;;;;;105566;1256;61776;-49
2023/03/23 06:34:27;;;;;;;16.00;12.40;;;;;;;;;;105646;1250;60860;-48
2023/03/23 06:37:12;;;;;;;12.50;11.20;;;;;;;;;;105606;1250;60499;-45
2023/03/23 06:40:05;;;;;;;14.30;12.30;;;;;;;;;;105709;1250;60419;-47
2023/03/23 06:42:37;;;;;;;18.00;13.60;;;;;;;;;;105876;1257;62452;-49
2023/03/23 06:45:23;;;;;;;16.20;13.40;;;;;;;;;;106146;1256;60505;-48
2023/03/23 06:47:55;;;;;;;16.10;13.30;;;;;;;;;;106023;1255;60728;-49
2023/03/23 06:50:21;;;;;;;16.10;14.00;;;;;;;;;;105485;1256;60531;-48
2023/03/23 06:52:49;;;;;;;14.60;12.60;;;;;;;;;;106075;1253;60436;-49
2023/03/23 06:55:16;;;;;;;17.50;13.30;;;;;;;;;;107528;1253;61997;-47
2023/03/23 06:57:43;;;;;;;18.50;12.70;;;;;;;;;;105879;1255;60335;-50
2023/03/23 07:00:13;;;;;;;22.30;13.50;;;;;;;;;;106583;1251;61030;-48
2023/03/23 07:02:52;;;;;;;19.80;15.00;;;;;;;;;;105591;1259;60484;-47
2023/03/23 07:05:19;;;;;;;19.20;16.00;;;;;;;;;;105810;1254;60512;-51
2023/03/23 07:07:48;;;;;;;19.10;16.30;;;;;;;;;;106076;1255;61137;-49
2023/03/23 07:12:41;;;;;;;17.40;14.60;;;;;;;;;;102201;1295;602597;-50
2023/03/23 07:15:10;;;;;;;16.20;14.40;;;;;;;;;;105087;1269;59004;-48
2023/03/23 07:17:39;;;;;;;17.40;14.40;;;;;;;;;;104927;1262;59286;-48
2023/03/23 07:20:35;;;;;;;15.90;13.60;;;;;;;;;;104972;1258;60680;-47
2023/03/23 07:23:05;;;;;;;16.10;13.60;;;;;;;;;;104984;1257;59132;-45
2023/03/23 07:25:45;;;;;;;15.90;13.90;;;;;;;;;;107674;1258;419260;-47
2023/03/23 07:28:16;;;;;;;16.80;14.20;;;;;;;;;;105296;1259;59065;-47
2023/03/23 07:30:44;;;;;;;17.40;14.80;;;;;;;;;;105466;1259;59053;-50
2023/03/23 07:33:12;;;;;;;15.30;13.70;;;;;;;;;;105672;1259;60561;-49
2023/03/23 07:35:39;;;;;;;22.20;18.10;;;;;;;;;;105686;1256;58992;-48
2023/03/23 07:38:13;;;;;;;18.20;16.00;;;;;;;;;;105027;1259;60649;-50
2023/03/23 07:40:41;;;;;;;18.50;15.80;;;;;;;;;;105402;1255;61136;-47
2023/03/23 07:43:12;;;;;;;20.20;16.60;;;;;;;;;;105963;1257;59733;-51
2023/03/23 07:45:59;;;;;;;22.80;18.10;;;;;;;;;;105376;1255;61357;-47
2023/03/23 07:48:33;;;;;;;20.20;17.30;;;;;;;;;;105668;1259;59592;-47
2023/03/23 07:51:00;;;;;;;22.20;16.80;;;;;;;;;;105222;1259;62135;-47
2023/03/23 07:53:39;;;;;;;18.60;15.90;;;;;;;;;;105812;1256;59732;-49
2023/03/23 07:56:31;;;;;;;20.30;16.40;;;;;;;;;;105439;1254;59612;-49
2023/03/23 07:59:06;;;;;;;;;;;;;;;;;;105482;1257;61637;-48
2023/03/23 08:01:33;;;;;;;18.30;16.40;;;;;;;;;;106539;1259;59474;-49
2023/03/23 08:04:20;;;;;;;19.90;17.80;;;;;;;;;;105208;1259;60464;-49
2023/03/23 08:07:04;;;;;;;20.70;18.00;;;;;;;;;;106891;1257;59731;-50
2023/03/23 08:09:47;;;;;;;20.50;17.40;;;;;;;;;;108883;1257;57696;-50
2023/03/23 08:12:35;;;;;;;19.30;17.30;;;;;;;;;;108927;1256;61812;-48
2023/03/23 08:15:21;;;;;;;19.10;17.10;;;;;;;;;;108924;1257;57394;-49
2023/03/23 08:18:26;;;;;;;21.20;17.10;;;;;;;;;;108487;1262;59533;-49
2023/03/23 08:21:09;;;;;;;17.10;15.20;;;;;;;;;;107826;1263;59903;-50
2023/03/23 08:23:46;;;;;;;20.60;16.20;;;;;;;;;;105596;1254;59718;-48
2023/03/23 08:26:30;;;;;;;16.10;14.40;;;;;;;;;;104526;1262;61088;-49
2023/03/23 08:29:11;;;;;;;15.90;14.30;;;;;;;;;;108803;1257;57844;-51
2023/03/23 08:32:02;;;;;;;14.70;13.20;;;;;;;;;;108865;1255;59986;-49
2023/03/23 08:34:44;;;;;;;16.30;13.60;;;;;;;;;;108977;1255;57514;-51
2023/03/23 08:37:43;;;;;;;14.70;12.60;;;;;;;;;;108860;1256;57573;-50
2023/03/23 08:40:29;;;;;;;17.70;13.80;;;;;;;;;;108962;1257;62326;-49
2023/03/23 08:43:15;;;;;;;15.60;13.60;;;;;;;;;;108744;1257;58080;-47
2023/03/23 08:46:06;;;;;;;14.00;12.50;;;;;;;;;;108734;1256;60918;-48
2023/03/23 08:48:53;;;;;;;13.70;12.40;;;;;;;;;;109001;1257;58050;-47
2023/03/23 08:51:39;;;;;;;14.10;12.60;;;;;;;;;;108964;1257;59042;-49
2023/03/23 08:54:17;;;;;;;12.20;11.00;;;;;;;;;;105787;1257;60468;-49
2023/03/23 08:57:03;;;;;;;12.40;11.40;;;;;;;;;;105385;1260;59627;-50
2023/03/23 08:59:30;;;;;;;13.40;11.90;;;;;;;;;;106741;1257;60719;-50
2023/03/23 09:02:23;;;;;;;12.50;11.20;;;;;;;;;;104807;1257;59953;-50
2023/03/23 09:05:15;;;;;;;26.30;12.00;;;;;;;;;;105313;1257;59609;-49
2023/03/23 09:07:58;;;;;;;12.80;11.50;;;;;;;;;;105961;1257;61320;-49
2023/03/23 09:10:26;;;;;;;13.20;10.30;;;;;;;;;;105446;1260;59666;-52
2023/03/23 09:12:54;;;;;;;13.60;10.80;;;;;;;;;;104417;1257;59694;-50
2023/03/23 09:15:21;;;;;;;12.60;9.80;;;;;;;;;;104572;1260;59650;-51
2023/03/23 09:17:52;;;;;;;9.40;8.50;;;;;;;;;;105161;1262;59984;-49
2023/03/23 09:20:22;;;;;;;9.60;8.80;;;;;;;;;;105225;1258;61380;-52
2023/03/23 09:22:50;;;;;;;10.80;9.70;;;;;;;;;;104867;1257;59482;-49
2023/03/23 09:25:20;;;;;;;10.50;8.70;;;;;;;;;;105052;1257;60932;-50
2023/03/23 09:27:52;;;;;;;10.00;9.10;;;;;;;;;;105559;1260;59599;-52
2023/03/23 09:30:19;;;;;;;11.60;9.20;;;;;;;;;;105517;1257;59590;-50
2023/03/23 09:32:47;;;;;;;9.50;8.60;;;;;;;;;;105360;1257;61378;-49
2023/03/23 09:35:16;;;;;;;9.70;8.60;;;;;;;;;;105312;1257;59648;-49
2023/03/23 09:37:44;;;;;;;10.10;9.20;;;;;;;;;;107509;1256;60722;-53
2023/03/23 09:40:14;;;;;;;10.20;9.10;;;;;;;;;;105408;1259;59654;-51
2023/03/23 09:42:57;;;;;;;9.50;8.60;;;;;;;;;;105170;1257;59661;-51
2023/03/23 09:45:25;;;;;;;10.30;9.30;;;;;;;;;;105070;1258;61213;-52
2023/03/23 09:47:58;;;;;;;10.80;8.20;;;;;;;;;;105959;1256;59925;-51
2023/03/23 09:50:31;;;;;;;12.50;8.70;;;;;;;;;;105293;1257;60597;-51
2023/03/23 09:53:00;;;;;;;8.50;7.80;;;;;;;;;;105890;1257;59645;-51
2023/03/23 09:55:48;;;;;;;9.60;8.80;;;;;;;;;;105152;1259;60076;-49
2023/03/23 09:58:18;;;;;;;7.50;7.00;;;;;;;;;;106003;1257;61235;-53
2023/03/23 10:01:08;;;;;;;9.80;8.70;;;;;;;;;;105315;1257;58054;-49
2023/03/23 10:03:39;;;;;;;9.50;8.20;;;;;;;;;;105122;1259;60556;-48
2023/03/23 10:06:07;;;;;;;8.30;7.50;;;;;;;;;;105844;1262;59700;-48
2023/03/23 10:08:34;;;;;;;8.70;7.70;;;;;;;;;;105676;1271;59727;-51
2023/03/23 10:11:20;;;;;;;8.70;7.80;;;;;;;;;;106975;1260;61326;-50
2023/03/23 10:14:09;;;;;;;8.60;7.90;;;;;;;;;;105394;1260;59623;-46
2023/03/23 10:16:49;;;;;;;6.70;6.20;;;;;;;;;;105904;1257;60946;-49
2023/03/23 10:19:37;;;;;;;9.20;7.50;;;;;;;;;;106403;1262;60271;-50
2023/03/23 10:22:06;;;;;;;9.60;8.70;;;;;;;;;;105505;1259;59935;-48
2023/03/23 10:24:45;;;;;;;8.60;7.80;;;;;;;;;;106312;1258;61392;-49
2023/03/23 10:27:30;;;;;;;9.60;8.60;;;;;;;;;;105387;1260;59579;-46
2023/03/23 10:30:00;;;;;;;9.60;8.80;;;;;;;;;;105305;1262;60824;-50
2023/03/23 10:32:38;;;;;;;8.40;7.50;;;;;;;;;;106412;1260;59686;-51
2023/03/23 10:35:05;;;;;;;10.50;7.90;;;;;;;;;;105340;1260;60572;-50
2023/03/23 10:37:36;;;;;;;9.70;8.70;;;;;;;;;;107457;1257;61050;-47
2023/03/23 10:40:09;;;;;;;13.60;8.00;;;;;;;;;;107237;1261;59621;-47
2023/03/23 10:42:37;;;;;;;10.00;8.50;;;;;;;;;;105299;1257;60717;-50
2023/03/23 10:45:17;;;;;;;9.90;8.90;;;;;;;;;;105694;1258;59724;-48
2023/03/23 10:47:50;;;;;;;11.60;9.20;;;;;;;;;;105445;1260;59555;-51
2023/03/23 10:50:18;;;;;;;10.10;9.00;;;;;;;;;;107150;1259;60386;-48
2023/03/23 10:52:45;;;;;;;10.00;8.70;;;;;;;;;;106310;1261;59139;-50
2023/03/23 10:55:13;;;;;;;10.30;9.10;;;;;;;;;;105450;1257;60747;-50
2023/03/23 10:57:43;;;;;;;8.60;7.80;;;;;;;;;;106068;1259;59653;-47
2023/03/23 11:00:20;;;;;;;8.20;7.50;;;;;;;;;;105409;1260;59596;-48
2023/03/23 11:02:56;;;;;;;9.60;8.20;;;;;;;;;;105385;1259;61681;-49
2023/03/23 11:05:23;;;;;;;9.00;8.20;;;;;;;;;;108829;1257;58149;-52
2023/03/23 11:07:52;;;;;;;10.10;8.30;;;;;;;;;;108982;1257;60621;-52
2023/03/23 11:10:23;;;;;;;9.80;8.80;;;;;;;;;;108920;1257;57686;-51
2023/03/23 11:12:50;;;;;;;8.50;7.70;;;;;;;;;;108931;1256;58898;-51
2023/03/23 11:15:27;;;;;;;7.80;7.10;;;;;;;;;;108972;1257;61341;-52
2023/03/23 11:17:58;;;;;;;11.70;7.40;;;;;;;;;;108832;1257;57596;-52
2023/03/23 11:20:26;;;;;;;7.40;6.60;;;;;;;;;;108286;1257;59890;-47
2023/03/23 11:22:53;;;;;;;5.80;5.30;;;;;;;;;;109026;1257;57336;-51
2023/03/23 11:25:20;;;;;;;7.10;6.50;;;;;;;;;;108836;1256;58582;-50
2023/03/23 11:27:48;;;;;;;9.20;5.60;;;;;;;;;;108801;1257;61453;-51
2023/03/23 11:30:21;;;;;;;5.50;5.20;;;;;;;;;;108791;1259;57626;-50
2023/03/23 11:32:49;;;;;;;6.80;6.10;;;;;;;;;;108815;1257;60479;-49
2023/03/23 11:35:26;;;;;;;7.20;6.50;;;;;;;;;;108828;1259;59185;-49
2023/03/23 11:37:54;;;;;;;6.80;5.30;;;;;;;;;;108864;1259;58581;-49
2023/03/23 11:40:23;;;;;;;6.90;5.30;;;;;;;;;;108916;1257;60832;-49
2023/03/23 11:42:53;;;;;;;5.30;4.90;;;;;;;;;;108889;1257;58791;-50
2023/03/23 11:45:20;;;;;;;5.70;5.20;;;;;;;;;;108819;1256;59496;-51
2023/03/23 11:47:49;;;;;;;5.30;4.90;;;;;;;;;;108848;1256;58631;-51
2023/03/23 11:50:35;;;;;;;4.70;4.30;;;;;;;;;;108866;1257;58629;-51
2023/03/23 11:53:07;;;;;;;5.40;4.30;;;;;;;;;;108757;1255;62147;-48
2023/03/23 11:55:44;;;;;;;5.50;4.60;;;;;;;;;;105267;1257;60456;-50
2023/03/23 11:58:12;;;;;;;5.70;5.00;;;;;;;;;;105352;1263;61082;-49
2023/03/23 12:00:41;;;;;;;5.80;5.40;;;;;;;;;;105203;1262;60594;-49
2023/03/23 12:03:10;;;;;;;8.00;5.00;;;;;;;;;;104909;1263;60540;-51
2023/03/23 12:06:02;;;;;;;9.30;4.80;;;;;;;;;;105211;1262;60918;-47
2023/03/23 12:08:51;;;;;;;6.30;5.70;;;;;;;;;;105429;1256;60427;-46
2023/03/23 12:11:24;;;;;;;4.50;4.10;;;;;;;;;;105500;1257;60885;-50
2023/03/23 12:14:13;;;;;;;5.60;5.10;;;;;;;;;;105265;1257;60574;-52
2023/03/23 12:16:40;;;;;;;6.50;4.60;;;;;;;;;;105174;1259;60435;-50
2023/03/23 12:19:31;;;;;;;5.80;5.20;;;;;;;;;;105879;1259;62612;-49
2023/03/23 12:22:05;;;;;;;5.60;5.00;;;;;;;;;;105885;1259;60402;-50
2023/03/23 12:24:32;;;;;;;;;;;;;;;;;;105546;1263;61134;-48
2023/03/23 12:27:08;;;;;;;5.00;4.60;;;;;;;;;;105316;1263;60543;-48
2023/03/23 12:29:53;;;;;;;6.50;4.60;;;;;;;;;;105689;1255;60425;-48
2023/03/23 12:32:20;;;;;;;5.00;4.30;;;;;;;;;;105328;1260;62121;-51
2023/03/23 12:34:47;;;;;;;5.00;4.60;;;;;;;;;;105328;1260;60412;-49
2023/03/23 12:37:21;;;;;;;8.00;6.20;;;;;;;;;;105345;1265;60880;-47
2023/03/23 12:40:08;;;;;;;4.80;4.40;;;;;;;;;;105747;1258;60539;-46
2023/03/23 12:43:15;;;;;;;6.70;5.10;;;;;;;;;;105301;1262;60438;-50
2023/03/23 12:45:45;;;;;;;6.00;5.50;;;;;;;;;;104706;1266;62080;-47
2023/03/23 12:48:23;;;;;;;6.20;4.40;;;;;;;;;;105019;1267;60339;-46
2023/03/23 12:50:56;;;;;;;6.80;6.30;;;;;;;;;;105968;1262;60877;-50
2023/03/23 12:53:25;;;;;;;7.70;7.00;;;;;;;;;;105246;1260;60409;-51
2023/03/23 12:56:10;;;;;;;10.40;6.20;;;;;;;;;;106501;1260;60315;-48
2023/03/23 12:58:40;;;;;;;7.10;5.20;;;;;;;;;;105356;1265;62137;-48
2023/03/23 13:01:09;;;;;;;5.60;5.20;;;;;;;;;;106131;1260;60543;-49
2023/03/23 13:03:42;;;;;;;5.10;4.70;;;;;;;;;;108941;1259;60776;-49
2023/03/23 13:06:17;;;;;;;4.50;4.00;;;;;;;;;;107189;1261;60520;-49
2023/03/23 13:08:56;;;;;;;5.10;4.50;;;;;;;;;;106720;1260;60437;-51
2023/03/23 13:11:26;;;;;;;9.40;7.20;;;;;;;;;;105544;1255;62686;-49
2023/03/23 13:14:03;;;;;;;9.00;6.80;;;;;;;;;;105953;1259;60405;-50
2023/03/23 13:17:01;;;;;;;12.00;6.60;;;;;;;;;;105247;1260;60820;-49
2023/03/23 13:19:48;;;;;;;7.90;6.20;;;;;;;;;;105233;1273;60527;-49
2023/03/23 13:22:23;;;;;;;6.80;6.10;;;;;;;;;;105274;1260;60440;-47
2023/03/23 13:24:56;;;;;;;7.00;6.30;;;;;;;;;;105394;1264;62085;-49
2023/03/23 13:27:25;;;;;;;7.50;5.70;;;;;;;;;;105955;1260;60430;-48
2023/03/23 13:29:52;;;;;;;10.80;7.50;;;;;;;;;;105919;1261;60780;-50
2023/03/23 13:32:19;;;;;;;5.30;4.90;;;;;;;;;;105251;1260;60520;-49
2023/03/23 13:34:46;;;;;;;7.10;6.00;;;;;;;;;;105325;1260;60432;-51
2023/03/23 13:37:24;;;;;;;5.50;5.10;;;;;;;;;;105264;1260;61167;-49
2023/03/23 13:39:56;;;;;;;4.70;4.30;;;;;;;;;;105214;1262;60557;-49
2023/03/23 13:42:23;;;;;;;5.30;4.80;;;;;;;;;;105338;1260;60603;-48
2023/03/23 13:44:51;;;;;;;5.80;5.20;;;;;;;;;;106128;1256;60543;-49
2023/03/23 13:47:28;;;;;;;6.10;5.70;;;;;;;;;;105862;1257;60346;-50
2023/03/23 13:50:01;;;;;;;6.30;5.70;;;;;;;;;;105414;1255;62356;-48
2023/03/23 13:52:43;;;;;;;4.20;3.90;;;;;;;;;;105715;1260;60400;-47
2023/03/23 13:55:17;;;;;;;6.30;5.70;;;;;;;;;;107341;1259;60700;-48
2023/03/23 13:57:48;;;;;;;5.90;4.50;;;;;;;;;;108133;1258;58192;-52
2023/03/23 14:00:27;;;;;;;4.10;3.70;;;;;;;;;;105476;1260;60422;-47
2023/03/23 14:03:03;;;;;;;6.30;4.10;;;;;;;;;;105390;1258;62173;-48
2023/03/23 14:05:37;;;;;;;3.20;2.90;;;;;;;;;;105412;1258;60361;-52
2023/03/23 14:08:10;;;;;;;6.00;3.20;;;;;;;;;;109110;1256;60542;-48
2023/03/23 14:10:38;;;;;;;5.00;3.80;;;;;;;;;;108916;1255;58312;-48
2023/03/23 14:13:10;;;;;;;3.60;3.30;;;;;;;;;;109056;1254;58461;-49
2023/03/23 14:15:40;;;;;;;2.90;2.70;;;;;;;;;;109072;1255;62356;-48
2023/03/23 14:18:11;;;;;;;4.80;3.10;;;;;;;;;;109026;1258;58719;-50
2023/03/23 14:20:39;;;;;;;4.10;3.40;;;;;;;;;;108920;1257;59853;-48
2023/03/23 14:23:12;;;;;;;4.60;3.50;;;;;;;;;;109082;1254;58394;-49
2023/03/23 14:25:39;;;;;;;3.80;3.50;;;;;;;;;;108882;1254;58468;-48
2023/03/23 14:28:16;;;;;;;5.90;4.60;;;;;;;;;;108991;1257;61223;-49
2023/03/23 14:30:43;;;;;;;4.30;3.10;;;;;;;;;;108862;1254;58722;-49
2023/03/23 14:33:10;;;;;;;3.40;3.10;;;;;;;;;;108953;1254;60424;-51
2023/03/23 14:35:38;;;;;;;3.90;3.60;;;;;;;;;;108833;1260;58377;-48
2023/03/23 14:38:05;;;;;;;3.90;3.20;;;;;;;;;;108864;1254;58826;-49
2023/03/23 14:40:32;;;;;;;4.10;3.20;;;;;;;;;;108710;1259;62274;-50
2023/03/23 14:42:58;;;;;;;7.70;4.20;;;;;;;;;;108867;1254;58459;-50
2023/03/23 14:45:32;;;;;;;3.40;3.10;;;;;;;;;;108904;1254;59791;-50
2023/03/23 14:47:59;;;;;;;4.50;3.90;;;;;;;;;;108815;1254;59161;-50
2023/03/23 14:50:28;;;;;;;6.40;3.60;;;;;;;;;;108794;1254;58662;-51